Time;durP1;ratioP1;P1;durP2;ratioP2;P2;SDS_P1;SDS_P2;PMS_P1;PMS_P2;Temp;Humidity;BMP_temperature;BMP_pressure;BME280_temperature;BME280_humidity;BME280_pressure;Samples;Min_cycle;Max_cycle;Signal;HPM_P1;HPM_P2
2023/05/05 00:00:20;;;;;;;1.80;1.60;;;;;;;19.84;47.84;97111.47;10429945;28;20406;-49
2023/05/05 00:05:48;;;;;;;1.48;1.35;;;;;;;19.83;47.83;97116.03;10416550;28;20045;-49
2023/05/05 00:11:08;;;;;;;1.85;1.42;;;;;;;19.82;47.88;97114.47;10429456;28;20099;-50
2023/05/05 00:16:27;;;;;;;2.08;1.50;;;;;;;19.81;47.85;97110.16;10429365;28;20045;-49
2023/05/05 00:21:47;;;;;;;2.95;1.30;;;;;;;19.79;47.84;97117.78;10429178;28;20061;-48
2023/05/05 00:27:06;;;;;;;1.48;1.38;;;;;;;19.79;47.76;97117.78;10429016;28;20041;-48
2023/05/05 00:32:26;;;;;;;1.50;1.40;;;;;;;19.79;47.80;97112.38;10428769;28;20041;-48
2023/05/05 00:37:46;;;;;;;1.48;1.38;;;;;;;19.77;47.66;97106.50;10413229;28;20405;-49
2023/05/05 00:43:06;;;;;;;2.53;1.40;;;;;;;19.78;47.72;97110.81;10413630;28;20042;-46
2023/05/05 00:48:29;;;;;;;1.95;1.38;;;;;;;19.76;47.90;97107.63;10423978;28;20049;-49
2023/05/05 00:53:49;;;;;;;1.50;1.38;;;;;;;19.75;47.79;97114.16;10415127;28;20058;-48
2023/05/05 00:59:09;;;;;;;1.95;1.50;;;;;;;19.74;47.79;97109.88;10415024;28;20061;-49
2023/05/05 01:04:28;;;;;;;1.65;1.35;;;;;;;19.73;47.74;97111.75;10428062;28;20041;-49
2023/05/05 01:10:02;;;;;;;1.40;1.30;;;;;;;19.73;47.77;97110.97;10427877;28;20041;-47
2023/05/05 01:15:37;;;;;;;1.75;1.42;;;;;;;19.72;47.75;97110.19;10412838;28;20049;-47
2023/05/05 01:21:03;;;;;;;1.77;1.30;;;;;;;19.71;47.58;97121.28;10412794;28;20045;-48
2023/05/05 01:26:58;;;;;;;1.58;1.23;;;;;;;19.69;47.76;97108.06;10427551;28;20107;-46
2023/05/05 01:32:21;;;;;;;1.38;1.23;;;;;;;19.70;47.67;97114.28;10391165;28;20053;-47
2023/05/05 01:37:51;;;;;;;1.40;1.30;;;;;;;19.69;47.70;97116.16;10398724;28;20482;-49
2023/05/05 01:43:12;;;;;;;1.13;1.02;;;;;;;19.69;47.72;97123.50;10412376;28;20054;-46
2023/05/05 01:48:32;;;;;;;1.40;1.30;;;;;;;19.67;47.69;97115.69;10426075;28;20056;-49
2023/05/05 01:53:56;;;;;;;1.50;1.40;;;;;;;19.68;47.62;97127.28;10434822;28;20092;-49
2023/05/05 01:59:16;;;;;;;1.60;1.20;;;;;;;19.65;47.68;97114.44;10419859;28;20409;-47
2023/05/05 02:04:41;;;;;;;1.30;1.20;;;;;;;19.65;47.62;97119.84;10419538;28;20048;-50
2023/05/05 02:10:01;;;;;;;1.25;1.00;;;;;;;19.64;47.69;97110.94;10419307;28;20053;-49
2023/05/05 02:15:22;;;;;;;1.55;1.30;;;;;;;19.63;47.63;97120.16;10434036;28;20038;-48
2023/05/05 02:20:42;;;;;;;1.40;1.25;;;;;;;19.63;47.64;97119.34;10433918;28;20049;-49
2023/05/05 02:26:06;;;;;;;2.25;1.33;;;;;;;19.62;47.73;97115.88;10433740;28;20038;-47
2023/05/05 02:31:26;;;;;;;1.40;1.08;;;;;;;19.62;47.64;97117.75;10391639;28;20049;-45
2023/05/05 02:36:46;;;;;;;1.67;1.10;;;;;;;19.60;47.47;97109.16;10404511;28;20095;-48
2023/05/05 02:42:07;;;;;;;1.30;1.20;;;;;;;19.60;47.63;97114.56;10418249;28;20509;-46
2023/05/05 02:47:36;;;;;;;1.70;1.20;;;;;;;19.59;47.61;97110.28;10432294;28;20038;-47
2023/05/05 02:52:57;;;;;;;1.38;1.10;;;;;;;19.58;47.52;97106.78;10417719;28;20041;-48
2023/05/05 02:58:21;;;;;;;1.42;1.25;;;;;;;19.57;47.70;97102.50;10417220;28;20515;-48
2023/05/05 03:04:02;;;;;;;1.20;1.10;;;;;;;19.56;47.54;97100.91;10417401;28;20049;-48
2023/05/05 03:09:45;;;;;;;1.13;1.00;;;;;;;19.55;47.62;97100.09;10416984;28;20096;-50
2023/05/05 03:15:08;;;;;;;1.38;1.20;;;;;;;19.54;47.56;97089.59;10416894;28;20057;-46
2023/05/05 03:20:29;;;;;;;1.23;1.08;;;;;;;19.54;47.64;97086.91;10403016;28;20049;-49
2023/05/05 03:25:51;;;;;;;1.33;1.17;;;;;;;19.53;47.67;97086.13;10416440;28;20072;-47
2023/05/05 03:31:21;;;;;;;1.23;1.13;;;;;;;19.53;47.64;97083.41;10416131;28;20049;-47
2023/05/05 03:36:46;;;;;;;1.40;1.30;;;;;;;19.52;47.56;97084.53;10416033;28;20509;-46
2023/05/05 03:42:08;;;;;;;1.50;1.20;;;;;;;19.51;47.60;97077.53;10415620;28;20045;-45
2023/05/05 03:47:28;;;;;;;1.40;1.20;;;;;;;19.51;47.62;97084.84;10414426;28;20048;-50
2023/05/05 03:52:49;;;;;;;1.20;1.10;;;;;;;19.49;47.50;97079.75;10415339;28;20044;-46
2023/05/05 03:58:09;;;;;;;1.58;1.20;;;;;;;19.47;47.71;97079.28;10401751;28;20045;-49
2023/05/05 04:03:29;;;;;;;1.23;1.13;;;;;;;19.48;47.60;97080.88;10414978;28;20049;-48
2023/05/05 04:08:49;;;;;;;1.27;1.17;;;;;;;19.49;47.47;97087.06;10429714;28;20045;-47
2023/05/05 04:14:09;;;;;;;1.40;1.30;;;;;;;19.52;47.55;97089.13;10413778;28;20048;-49
2023/05/05 04:19:32;;;;;;;1.20;1.10;;;;;;;19.49;47.65;97082.47;10429265;28;20092;-46
2023/05/05 04:24:53;;;;;;;1.40;1.30;;;;;;;19.47;47.64;97092.78;10414128;28;20041;-49
2023/05/05 04:30:13;;;;;;;1.20;1.10;;;;;;;19.47;47.64;97098.19;10413872;28;20045;-47
2023/05/05 04:35:34;;;;;;;1.00;1.00;;;;;;;19.45;47.62;97089.63;10413788;28;20041;-49
2023/05/05 04:40:54;;;;;;;1.25;1.15;;;;;;;19.46;47.59;97102.00;10413650;28;20042;-49
2023/05/05 04:46:14;;;;;;;1.25;1.10;;;;;;;19.45;47.70;97099.63;10413526;28;20049;-47
2023/05/05 04:51:34;;;;;;;2.72;1.20;;;;;;;19.44;47.63;97109.63;10416275;28;20053;-49
2023/05/05 04:56:54;;;;;;;1.25;1.15;;;;;;;19.44;47.87;97109.63;10384501;28;20517;-45
2023/05/05 05:02:14;;;;;;;1.45;1.10;;;;;;;19.45;47.99;97111.22;10371800;28;20080;-46
2023/05/05 05:07:34;;;;;;;1.25;1.08;;;;;;;19.45;48.07;97122.03;10386785;28;20120;-48
2023/05/05 05:12:55;;;;;;;1.05;0.95;;;;;;;19.44;48.15;97123.13;10371736;28;20042;-48
2023/05/05 05:18:14;;;;;;;2.20;1.00;;;;;;;19.45;48.41;97121.25;10386224;28;20057;-49
2023/05/05 05:23:34;;;;;;;6.25;3.70;;;;;;;19.31;43.62;97127.56;10390833;28;20096;-48
2023/05/05 05:28:54;;;;;;;8.35;5.15;;;;;;;17.78;38.03;97135.72;10379744;28;20038;-48
2023/05/05 05:34:14;;;;;;;8.40;5.00;;;;;;;17.41;39.12;97138.72;10379428;28;20414;-49
2023/05/05 05:39:35;;;;;;;7.22;4.38;;;;;;;17.96;40.81;97134.00;10379361;28;20049;-49
2023/05/05 05:44:57;;;;;;;5.43;2.97;;;;;;;18.44;42.06;97131.78;10378715;28;20406;-49
2023/05/05 05:50:17;;;;;;;4.03;3.22;;;;;;;18.72;43.68;97138.59;10395093;28;20054;-45
2023/05/05 05:55:38;;;;;;;2.83;2.63;;;;;;;18.88;44.17;97140.94;10433176;28;20041;-47
2023/05/05 06:00:58;;;;;;;3.58;3.03;;;;;;;18.97;44.86;97139.03;10434246;28;20049;-49
2023/05/05 06:06:18;;;;;;;3.65;2.80;;;;;;;19.02;45.07;97132.72;10432783;28;20042;-51
2023/05/05 06:11:38;;;;;;;3.80;2.35;;;;;;;19.05;45.51;97138.31;10432526;28;20037;-49
2023/05/05 06:16:59;;;;;;;4.07;2.97;;;;;;;19.07;45.27;97141.50;10432641;28;20053;-50
2023/05/05 06:22:20;;;;;;;3.55;2.70;;;;;;;19.09;45.73;97147.38;10432102;28;20455;-47
2023/05/05 06:27:40;;;;;;;5.18;2.40;;;;;;;19.10;45.96;97142.75;10432241;28;20045;-47
2023/05/05 06:32:59;;;;;;;6.97;3.28;;;;;;;19.11;45.67;97161.34;10432249;28;20049;-46
2023/05/05 06:38:18;;;;;;;4.35;3.70;;;;;;;19.08;43.90;97142.28;10432721;28;20048;-47
2023/05/05 06:43:38;;;;;;;4.43;2.70;;;;;;;19.07;44.92;97141.50;10431505;28;20045;-47
2023/05/05 06:49:04;;;;;;;3.97;2.92;;;;;;;19.08;45.71;97139.56;10426327;28;20057;-47
2023/05/05 06:54:23;;;;;;;3.92;2.40;;;;;;;19.09;46.00;97139.28;10431953;28;20433;-46
2023/05/05 06:59:43;;;;;;;2.90;1.80;;;;;;;19.09;46.00;97139.28;10431982;28;20052;-45
2023/05/05 07:05:02;;;;;;;3.33;2.10;;;;;;;19.09;45.94;97139.28;10431752;28;20072;-45
2023/05/05 07:10:23;;;;;;;8.00;4.35;;;;;;;19.05;42.35;97141.00;10431851;28;20037;-47
2023/05/05 07:15:45;;;;;;;7.00;4.82;;;;;;;18.94;40.23;97143.19;10417694;28;20060;-49
2023/05/05 07:21:05;;;;;;;8.88;4.10;;;;;;;18.89;40.00;97146.00;10430600;28;20053;-49
2023/05/05 07:26:25;;;;;;;7.05;4.25;;;;;;;18.88;38.96;97146.34;10431230;28;20091;-48
2023/05/05 07:31:45;;;;;;;8.85;5.18;;;;;;;18.87;38.66;97142.81;10430961;28;20037;-49
2023/05/05 07:37:05;;;;;;;10.43;4.28;;;;;;;18.87;37.65;97125.84;10430709;28;20041;-51
2023/05/05 07:42:25;;;;;;;6.60;4.07;;;;;;;18.84;36.93;97124.56;10430689;28;20045;-47
2023/05/05 07:47:44;;;;;;;7.30;3.67;;;;;;;18.86;37.56;97116.16;10428869;28;20046;-51
2023/05/05 07:53:04;;;;;;;8.07;3.60;;;;;;;18.87;37.61;97115.03;10430149;28;20119;-49
2023/05/05 07:58:24;;;;;;;5.53;3.20;;;;;;;18.87;37.04;97115.03;10429021;28;20401;-50
2023/05/05 08:03:44;;;;;;;7.13;3.30;;;;;;;18.87;36.67;97117.72;10429662;28;20064;-50
2023/05/05 08:09:03;;;;;;;4.97;2.90;;;;;;;18.88;36.58;97119.34;10429253;28;20048;-50
2023/05/05 08:14:23;;;;;;;4.45;3.17;;;;;;;18.87;36.91;97126.63;10429385;28;20505;-47
2023/05/05 08:19:42;;;;;;;21.40;3.40;;;;;;;18.88;36.54;97124.75;10428973;28;20049;-47
2023/05/05 08:25:02;;;;;;;7.43;2.88;;;;;;;18.87;36.60;97118.53;10429026;28;20044;-46
2023/05/05 08:30:21;;;;;;;6.13;3.30;;;;;;;18.88;36.08;97120.13;10428832;28;20041;-48
2023/05/05 08:35:42;;;;;;;6.45;2.80;;;;;;;18.87;36.41;97123.91;10428786;28;20045;-48
2023/05/05 08:41:02;;;;;;;5.50;2.47;;;;;;;18.85;37.57;97123.44;10428102;28;20452;-46
2023/05/05 08:46:23;;;;;;;4.03;2.38;;;;;;;18.85;38.94;97119.94;10428413;28;20041;-47
2023/05/05 08:51:44;;;;;;;5.57;2.22;;;;;;;18.86;39.60;97121.56;10414048;28;20054;-49
2023/05/05 08:57:06;;;;;;;5.10;2.15;;;;;;;18.85;39.82;97128.84;10425196;28;20057;-48
2023/05/05 09:02:28;;;;;;;3.28;2.10;;;;;;;18.86;40.14;97126.94;10424547;28;20050;-47
2023/05/05 09:07:49;;;;;;;3.65;2.30;;;;;;;18.87;40.27;97126.63;10426739;28;20092;-48
2023/05/05 09:13:09;;;;;;;3.25;2.20;;;;;;;18.88;40.45;97130.13;10427692;28;20053;-46
2023/05/05 09:18:28;;;;;;;3.67;2.03;;;;;;;18.87;40.66;97121.22;10426713;28;20042;-47
2023/05/05 09:24:08;;;;;;;4.20;2.25;;;;;;;18.88;40.97;97113.94;10427619;28;20046;-45
2023/05/05 09:29:27;;;;;;;3.25;2.00;;;;;;;18.87;41.22;97107.72;10414358;28;20053;-46
2023/05/05 09:34:58;;;;;;;3.55;2.05;;;;;;;18.87;41.45;97106.94;10427357;28;20049;-46
2023/05/05 09:40:18;;;;;;;4.60;2.38;;;;;;;18.87;41.53;97091.53;10426276;28;20048;-50
2023/05/05 09:45:38;;;;;;;4.72;2.40;;;;;;;18.86;41.48;97095.34;10426919;28;20462;-46
2023/05/05 09:50:58;;;;;;;6.40;2.40;;;;;;;18.85;41.11;97095.66;10416375;28;20049;-47
2023/05/05 09:56:18;;;;;;;6.05;2.35;;;;;;;18.83;41.05;97089.78;10426756;28;20041;-47
2023/05/05 10:01:38;;;;;;;2.28;2.00;;;;;;;18.83;40.80;97084.38;10426548;28;20092;-47
2023/05/05 10:06:58;;;;;;;4.13;2.10;;;;;;;18.83;40.59;97087.06;10426370;28;20041;-49
2023/05/05 10:12:17;;;;;;;2.72;2.05;;;;;;;18.82;41.00;97090.88;10433117;28;20037;-47
2023/05/05 10:17:45;;;;;;;4.85;2.28;;;;;;;18.81;40.93;97081.19;10433715;28;20095;-47
2023/05/05 10:23:05;;;;;;;2.10;1.83;;;;;;;18.81;40.96;97073.88;10432705;28;20045;-49
2023/05/05 10:28:30;;;;;;;3.90;2.28;;;;;;;18.80;40.76;97069.59;10432482;28;20041;-46
2023/05/05 10:33:57;;;;;;;4.88;1.92;;;;;;;18.80;40.54;97075.00;10433084;28;20056;-45
2023/05/05 10:39:18;;;;;;;5.32;2.17;;;;;;;18.78;40.49;97051.00;10432896;28;20045;-46
2023/05/05 10:44:38;;;;;;;4.45;1.90;;;;;;;18.80;40.76;97060.69;10432859;28;20398;-47
2023/05/05 10:50:15;;;;;;;4.53;1.90;;;;;;;18.78;40.57;97051.00;10424929;28;20053;-46
2023/05/05 10:55:49;;;;;;;10.65;1.95;;;;;;;18.78;40.34;97039.41;10432203;28;20494;-48
2023/05/05 11:01:09;;;;;;;24.92;3.03;;;;;;;18.80;40.83;97041.81;10432229;28;20045;-49
2023/05/05 11:06:30;;;;;;;12.57;2.40;;;;;;;18.77;40.46;97044.00;10432064;28;20046;-46
2023/05/05 11:12:05;;;;;;;15.02;2.88;;;;;;;18.80;40.57;97033.72;10431447;28;20045;-48
2023/05/05 11:17:55;;;;;;;13.48;2.67;;;;;;;18.76;40.04;97031.63;10431445;28;20108;-49
2023/05/05 11:23:21;;;;;;;7.78;2.15;;;;;;;18.78;39.81;97025.91;10411307;28;20119;-47
2023/05/05 11:28:55;;;;;;;6.57;2.40;;;;;;;18.77;40.10;97013.50;10431074;28;20045;-46
2023/05/05 11:34:27;;;;;;;12.10;2.50;;;;;;;18.76;39.52;97015.44;10431057;28;20060;-49
2023/05/05 11:39:58;;;;;;;8.63;2.47;;;;;;;18.77;39.61;97011.59;10430891;28;20490;-50
2023/05/05 11:45:20;;;;;;;6.78;2.15;;;;;;;18.77;39.85;97013.50;10430618;28;20041;-46
2023/05/05 11:50:40;;;;;;;4.38;2.20;;;;;;;18.77;39.75;97008.13;10420823;28;20068;-49
2023/05/05 11:56:10;;;;;;;3.45;1.90;;;;;;;18.77;38.89;97011.59;10429272;28;20041;-48
2023/05/05 12:01:30;;;;;;;2.90;2.03;;;;;;;18.78;39.22;97009.72;10429054;28;20398;-48
2023/05/05 12:06:50;;;;;;;4.25;2.05;;;;;;;18.77;39.15;97006.19;10429886;28;20091;-49
2023/05/05 12:12:10;;;;;;;2.20;1.85;;;;;;;18.78;38.33;97001.63;10429559;28;20041;-49
2023/05/05 12:17:42;;;;;;;3.28;2.00;;;;;;;18.78;38.93;96996.22;10429093;28;20053;-47
2023/05/05 12:23:02;;;;;;;3.70;1.70;;;;;;;18.77;38.77;96990.00;10425081;28;20512;-47
2023/05/05 12:28:22;;;;;;;3.78;1.65;;;;;;;18.80;38.86;96993.22;10424947;28;20464;-49
2023/05/05 12:33:42;;;;;;;2.38;1.75;;;;;;;18.78;38.46;96980.81;10424122;28;20041;-50
2023/05/05 12:39:05;;;;;;;1.85;1.60;;;;;;;18.77;38.21;96979.22;10428653;28;20041;-47
2023/05/05 12:44:34;;;;;;;4.32;1.88;;;;;;;18.80;38.83;96974.31;10428525;28;20045;-48
2023/05/05 12:49:54;;;;;;;2.80;1.70;;;;;;;18.80;38.90;96966.22;10419813;28;20057;-50
2023/05/05 12:55:14;;;;;;;2.33;1.65;;;;;;;18.81;39.13;96962.44;10414422;28;20084;-49
2023/05/05 13:00:34;;;;;;;4.82;1.60;;;;;;;18.80;38.93;96950.03;10426606;28;20050;-48
2023/05/05 13:05:53;;;;;;;2.28;1.48;;;;;;;18.82;38.32;96955.91;10427414;28;20048;-47
2023/05/05 13:11:12;;;;;;;1.83;1.40;;;;;;;18.81;38.57;96941.63;10428000;28;20049;-49
2023/05/05 13:16:32;;;;;;;2.72;1.55;;;;;;;18.82;38.57;96945.13;10427263;28;20045;-47
2023/05/05 13:21:53;;;;;;;2.50;1.90;;;;;;;18.82;38.64;96934.31;10414284;28;20049;-46
2023/05/05 13:27:12;;;;;;;1.98;1.70;;;;;;;18.83;38.69;96935.91;10427266;28;20038;-49
2023/05/05 13:32:32;;;;;;;6.35;2.10;;;;;;;18.86;38.62;96927.22;10427521;28;20092;-55
2023/05/05 13:37:51;;;;;;;4.85;2.00;;;;;;;18.86;39.39;96922.59;10427409;28;20048;-52
2023/05/05 13:43:10;;;;;;;5.78;1.95;;;;;;;18.86;39.56;96906.41;10429338;28;20486;-57
2023/05/05 13:48:30;;;;;;;2.92;1.50;;;;;;;18.88;38.83;96908.78;10431690;28;20049;-45
2023/05/05 13:53:50;;;;;;;4.18;1.80;;;;;;;18.85;39.23;96898.59;10435082;28;20540;-49
2023/05/05 13:59:09;;;;;;;4.40;1.83;;;;;;;18.85;38.94;96898.59;10433993;28;20409;-47
2023/05/05 14:04:29;;;;;;;3.40;1.95;;;;;;;18.83;38.97;96895.44;10434595;28;20045;-49
2023/05/05 14:09:49;;;;;;;2.83;1.60;;;;;;;18.84;38.93;96886.25;10434289;28;20037;-48
2023/05/05 14:15:10;;;;;;;3.80;1.27;;;;;;;18.84;38.88;96878.16;10434246;28;20410;-49
2023/05/05 14:20:29;;;;;;;3.13;1.70;;;;;;;18.84;38.72;96872.75;10434063;28;20071;-48
2023/05/05 14:25:49;;;;;;;3.70;1.55;;;;;;;18.84;38.71;96868.13;10433912;28;20038;-45
2023/05/05 14:31:09;;;;;;;1.80;1.30;;;;;;;18.84;38.99;96870.84;10433488;28;20045;-48
2023/05/05 14:36:30;;;;;;;2.03;1.60;;;;;;;18.85;39.26;96866.22;10433260;28;20095;-48
2023/05/05 14:41:49;;;;;;;2.30;1.60;;;;;;;18.86;39.13;96873.22;10433138;28;20045;-49
2023/05/05 14:47:09;;;;;;;13.52;2.30;;;;;;;18.87;39.30;96878.28;10433019;28;20486;-44
2023/05/05 14:52:28;;;;;;;2.92;1.60;;;;;;;18.87;39.02;96866.69;10431747;28;20044;-55
2023/05/05 14:57:48;;;;;;;3.28;1.70;;;;;;;18.91;38.24;96862.25;10431857;28;20045;-55
2023/05/05 15:03:07;;;;;;;4.68;1.40;;;;;;;18.95;38.87;96868.59;10432302;28;20512;-57
2023/05/05 15:08:26;;;;;;;6.65;1.73;;;;;;;18.96;39.35;96868.28;10431901;28;20041;-44
2023/05/05 15:13:45;;;;;;;1.92;1.50;;;;;;;18.96;39.98;96865.59;10431594;28;20092;-45
2023/05/05 15:19:05;;;;;;;3.28;1.80;;;;;;;18.94;40.14;96869.72;10430697;28;20532;-46
2023/05/05 15:24:25;;;;;;;2.45;1.30;;;;;;;18.93;39.87;96863.53;10431621;28;20048;-48
2023/05/05 15:29:45;;;;;;;3.08;1.30;;;;;;;18.93;40.29;96857.31;10431328;28;20046;-48
2023/05/05 15:35:05;;;;;;;2.60;1.20;;;;;;;18.93;40.39;96857.31;10417999;28;20069;-45
2023/05/05 15:40:25;;;;;;;2.80;1.50;;;;;;;18.93;40.84;96858.13;10417537;28;20042;-48
2023/05/05 15:45:44;;;;;;;1.95;1.20;;;;;;;18.93;41.01;96852.75;10430694;28;20049;-46
2023/05/05 15:51:04;;;;;;;5.38;1.70;;;;;;;18.93;41.42;96841.94;10418985;28;20417;-47
2023/05/05 15:56:26;;;;;;;5.72;1.80;;;;;;;18.94;41.42;96834.63;10430402;28;20053;-46
2023/05/05 16:01:46;;;;;;;2.17;1.60;;;;;;;18.92;41.81;96834.94;10430277;28;20041;-47
2023/05/05 16:07:05;;;;;;;2.53;1.42;;;;;;;18.91;41.95;96836.03;10428936;28;20041;-47
2023/05/05 16:12:25;;;;;;;5.97;1.58;;;;;;;18.91;41.95;96824.44;10429730;28;20532;-48
2023/05/05 16:17:44;;;;;;;1.65;1.42;;;;;;;18.91;42.26;96835.25;10429350;28;20052;-48
2023/05/05 16:23:03;;;;;;;3.00;1.75;;;;;;;18.91;42.29;96819.06;10429141;28;20049;-46
2023/05/05 16:28:23;;;;;;;3.33;2.25;;;;;;;18.90;42.42;96814.78;10429242;28;20045;-46
2023/05/05 16:33:42;;;;;;;3.40;2.35;;;;;;;18.91;42.59;96813.66;10428808;28;20041;-48
2023/05/05 16:39:02;;;;;;;2.25;1.95;;;;;;;18.90;42.75;96803.97;10428850;28;20041;-45
2023/05/05 16:44:22;;;;;;;4.10;2.05;;;;;;;18.89;42.97;96805.09;10428678;28;20490;-48
2023/05/05 16:49:41;;;;;;;2.00;1.80;;;;;;;18.90;42.98;96809.38;10421604;28;20111;-45
2023/05/05 16:55:03;;;;;;;3.53;1.60;;;;;;;18.89;43.20;96807.78;10428338;28;20486;-48
2023/05/05 17:00:23;;;;;;;3.13;1.67;;;;;;;18.89;43.22;96803.16;10428234;28;20505;-45
2023/05/05 17:05:43;;;;;;;8.32;4.28;;;;;;;18.89;44.41;96786.97;10428022;28;20048;-45
2023/05/05 17:11:03;;;;;;;8.57;4.43;;;;;;;18.90;45.14;96788.56;10427880;28;20045;-45
2023/05/05 17:16:22;;;;;;;5.30;2.90;;;;;;;18.91;45.99;96783.97;10427882;28;20045;-47
2023/05/05 17:21:44;;;;;;;5.45;3.17;;;;;;;18.90;45.40;96783.19;10435966;28;20049;-44
2023/05/05 17:27:04;;;;;;;4.38;2.80;;;;;;;18.91;45.12;96784.75;10436220;28;20041;-47
2023/05/05 17:32:23;;;;;;;3.83;2.38;;;;;;;18.89;45.09;96781.56;10435979;28;20041;-49
2023/05/05 17:37:42;;;;;;;4.32;2.80;;;;;;;18.89;45.10;96786.97;10435852;28;20041;-46
2023/05/05 17:43:02;;;;;;;4.00;2.85;;;;;;;18.90;45.14;96779.69;10422527;28;20053;-49
2023/05/05 17:48:21;;;;;;;4.10;2.13;;;;;;;18.89;45.14;96780.78;10432253;28;20057;-47
2023/05/05 17:53:41;;;;;;;3.97;2.47;;;;;;;18.89;45.07;96776.19;10435133;28;20041;-46
2023/05/05 17:59:01;;;;;;;3.08;2.50;;;;;;;18.89;45.04;96786.19;10421818;28;20057;-46
2023/05/05 18:04:20;;;;;;;3.08;2.08;;;;;;;18.88;45.09;96785.41;10434794;28;20045;-46
2023/05/05 18:09:40;;;;;;;2.30;2.10;;;;;;;18.89;45.07;96788.88;10434577;28;20060;-50
2023/05/05 18:15:00;;;;;;;3.33;2.08;;;;;;;18.88;45.09;96792.72;10433423;28;20474;-45
2023/05/05 18:20:20;;;;;;;2.13;1.70;;;;;;;18.88;45.06;96801.59;10434300;28;20386;-46
2023/05/05 18:25:40;;;;;;;2.33;1.88;;;;;;;18.87;45.09;96797.31;10434107;28;20045;-48
2023/05/05 18:30:59;;;;;;;3.28;1.73;;;;;;;18.88;45.16;96793.50;10432808;28;20041;-46
2023/05/05 18:36:19;;;;;;;2.08;1.88;;;;;;;18.86;45.09;96803.03;10433656;28;20045;-45
2023/05/05 18:41:39;;;;;;;1.60;1.45;;;;;;;18.87;45.07;96799.22;10433431;28;20049;-46
2023/05/05 18:46:59;;;;;;;1.50;1.38;;;;;;;18.86;45.27;96800.34;10433281;28;20426;-46
2023/05/05 18:52:18;;;;;;;5.05;1.98;;;;;;;18.87;45.27;96810.00;10432905;28;20053;-47
2023/05/05 18:57:38;;;;;;;2.80;1.88;;;;;;;18.85;45.12;96813.03;10432580;28;20048;-50
2023/05/05 19:02:57;;;;;;;2.40;1.80;;;;;;;18.86;45.21;96814.63;10432574;28;20076;-47
2023/05/05 19:08:17;;;;;;;3.08;1.70;;;;;;;18.84;45.16;96816.84;10432412;28;20049;-46
2023/05/05 19:13:38;;;;;;;2.67;1.70;;;;;;;18.85;45.20;96817.63;10432112;28;20048;-46
2023/05/05 19:18:59;;;;;;;1.80;1.70;;;;;;;18.84;45.20;96816.84;10432017;28;20405;-48
2023/05/05 19:24:19;;;;;;;1.95;1.70;;;;;;;18.84;45.21;96810.66;10431760;28;20072;-47
2023/05/05 19:29:39;;;;;;;2.20;1.73;;;;;;;18.82;45.28;96799.38;10431446;28;20095;-48
2023/05/05 19:34:59;;;;;;;2.25;1.60;;;;;;;18.82;45.37;96791.28;10431191;28;20042;-45
2023/05/05 19:40:18;;;;;;;2.25;1.83;;;;;;;18.81;45.32;96774.28;10430823;28;20548;-48
2023/05/05 19:45:38;;;;;;;2.03;1.75;;;;;;;18.82;45.40;96766.97;10430795;28;20448;-47
2023/05/05 19:50:57;;;;;;;4.35;1.60;;;;;;;18.81;45.37;96758.09;10420220;28;20053;-47
2023/05/05 19:56:17;;;;;;;3.10;1.50;;;;;;;18.83;45.32;96757.78;10430365;28;20505;-48
2023/05/05 20:01:37;;;;;;;2.08;1.73;;;;;;;18.81;45.44;96752.69;10416967;28;20061;-47
2023/05/05 20:06:56;;;;;;;1.67;1.58;;;;;;;18.80;45.47;96751.13;10429937;28;20037;-47
2023/05/05 20:12:18;;;;;;;2.58;1.70;;;;;;;18.80;45.39;96750.31;10429698;28;20042;-48
2023/05/05 20:17:38;;;;;;;1.83;1.70;;;;;;;18.79;45.48;96744.09;10428594;28;20049;-47
2023/05/05 20:22:57;;;;;;;2.00;1.63;;;;;;;18.79;45.33;96749.50;10429372;28;20406;-48
2023/05/05 20:28:17;;;;;;;2.30;1.70;;;;;;;18.78;45.39;96754.09;10429150;28;20099;-47
2023/05/05 20:33:36;;;;;;;2.20;1.80;;;;;;;18.78;45.61;96754.09;10428894;28;20500;-49
2023/05/05 20:38:56;;;;;;;1.92;1.73;;;;;;;18.78;45.54;96754.09;10413772;28;20049;-48
2023/05/05 20:44:15;;;;;;;2.00;1.60;;;;;;;18.78;45.52;96753.31;10428544;28;20042;-47
2023/05/05 20:49:34;;;;;;;2.65;1.65;;;;;;;18.77;45.43;96752.50;10422049;28;20118;-48
2023/05/05 20:54:54;;;;;;;2.17;1.75;;;;;;;18.77;45.55;96747.09;10427708;28;20045;-47
2023/05/05 21:00:14;;;;;;;2.40;1.50;;;;;;;18.77;45.63;96754.41;10428302;28;20049;-46
2023/05/05 21:05:34;;;;;;;2.58;1.60;;;;;;;18.78;45.50;96747.94;10428083;28;20489;-49
2023/05/05 21:10:54;;;;;;;2.63;1.90;;;;;;;18.77;45.57;96749.03;10427934;28;20049;-48
2023/05/05 21:16:13;;;;;;;1.52;1.42;;;;;;;18.78;45.59;96747.94;10427950;28;20037;-49
2023/05/05 21:21:33;;;;;;;2.85;1.50;;;;;;;18.76;45.50;96747.44;10427788;28;20045;-47
2023/05/05 21:26:55;;;;;;;1.48;1.38;;;;;;;18.76;45.62;96737.44;10427783;28;20041;-45
2023/05/05 21:32:14;;;;;;;1.63;1.40;;;;;;;18.76;45.66;96731.25;10427568;28;20115;-48
2023/05/05 21:37:36;;;;;;;2.05;1.52;;;;;;;18.75;45.65;96733.16;10427504;28;20041;-48
2023/05/05 21:42:56;;;;;;;1.95;1.30;;;;;;;18.75;45.69;96733.16;10427306;28;20045;-47
2023/05/05 21:48:15;;;;;;;1.73;1.50;;;;;;;18.76;45.76;96733.97;10413971;28;20135;-47
2023/05/05 21:53:36;;;;;;;1.33;1.23;;;;;;;18.75;45.81;96737.75;10427182;28;20508;-46
2023/05/05 21:58:56;;;;;;;2.08;1.40;;;;;;;18.75;45.94;96730.44;10427103;28;20056;-49
2023/05/05 22:04:15;;;;;;;1.40;1.30;;;;;;;18.75;45.91;96724.25;10415669;28;20045;-46
2023/05/05 22:09:34;;;;;;;2.33;1.33;;;;;;;18.73;45.76;96719.19;10434648;28;20041;-48
2023/05/05 22:14:54;;;;;;;1.70;1.48;;;;;;;18.73;45.92;96694.91;10434362;28;20076;-48
2023/05/05 22:20:13;;;;;;;1.50;1.40;;;;;;;18.73;45.82;96686.78;10434186;28;20096;-46
2023/05/05 22:25:32;;;;;;;2.03;1.70;;;;;;;18.73;45.91;96688.72;10434103;28;20378;-48
2023/05/05 22:30:52;;;;;;;1.50;1.40;;;;;;;18.73;46.09;96678.69;10433701;28;20415;-49
2023/05/05 22:36:11;;;;;;;1.40;1.30;;;;;;;18.73;46.01;96683.31;10433637;28;20050;-50
2023/05/05 22:41:31;;;;;;;1.77;1.45;;;;;;;18.73;46.02;96683.31;10433441;28;20041;-48
2023/05/05 22:46:50;;;;;;;1.50;1.40;;;;;;;18.73;45.98;96686.78;10433299;28;20052;-47
2023/05/05 22:52:11;;;;;;;1.50;1.40;;;;;;;18.72;45.99;96685.22;10419397;28;20064;-47
2023/05/05 22:57:30;;;;;;;1.63;1.30;;;;;;;18.72;46.14;96687.94;10432806;28;20046;-47
2023/05/05 23:02:50;;;;;;;1.45;1.35;;;;;;;18.71;46.13;96683.63;10432550;28;20045;-48
2023/05/05 23:08:09;;;;;;;1.55;1.20;;;;;;;18.71;46.08;96685.53;10432279;28;20041;-45
2023/05/05 23:13:29;;;;;;;2.25;1.40;;;;;;;18.71;46.18;96688.25;10432132;28;20398;-48
2023/05/05 23:18:49;;;;;;;1.65;1.40;;;;;;;18.71;46.10;96686.31;10431471;28;20064;-48
2023/05/05 23:24:08;;;;;;;1.50;1.30;;;;;;;18.71;46.26;96682.84;10431826;28;20099;-48
2023/05/05 23:29:28;;;;;;;1.50;1.40;;;;;;;18.71;46.23;96674.75;10418464;28;20076;-47
2023/05/05 23:34:47;;;;;;;2.15;1.40;;;;;;;18.70;46.11;96665.88;10431306;28;20045;-44
2023/05/05 23:40:08;;;;;;;1.60;1.33;;;;;;;18.70;46.11;96654.25;10431149;28;20045;-47
2023/05/05 23:45:27;;;;;;;1.25;1.15;;;;;;;18.70;46.28;96651.56;10430982;28;20513;-49
2023/05/05 23:50:47;;;;;;;1.35;1.25;;;;;;;18.70;46.06;96655.06;10420952;28;20061;-47
2023/05/05 23:56:07;;;;;;;1.88;1.40;;;;;;;18.69;46.18;96647.28;10430496;28;20041;-47
